createdAt,value
2022-11-01T05:40:29.886Z,16.10
2022-11-01T05:45:01.092Z,16.01
2022-11-01T05:49:31.934Z,15.82
2022-11-01T05:54:08.908Z,15.67
2022-11-01T05:58:46.875Z,15.58
2022-11-01T06:03:23.906Z,15.32
2022-11-01T06:07:54.157Z,15.13
2022-11-01T06:12:23.901Z,15.03
2022-11-01T06:17:02.929Z,14.82
2022-11-01T06:21:39.913Z,14.74
2022-11-01T06:26:17.039Z,14.56
2022-11-01T06:30:47.614Z,14.54
2022-11-01T06:35:20.025Z,14.48
2022-11-01T06:39:57.113Z,14.31
2022-11-01T06:44:34.143Z,14.26
2022-11-01T06:49:14.885Z,14.25
2022-11-01T06:53:58.009Z,14.21
2022-11-01T06:58:28.273Z,14.11
2022-11-01T07:03:06.047Z,14.04
2022-11-01T07:07:43.177Z,13.90
2022-11-01T07:12:22.194Z,13.88
2022-11-01T07:16:58.947Z,13.81
2022-11-01T07:21:29.221Z,13.85
2022-11-01T07:25:59.969Z,14.28
2022-11-01T07:30:39.455Z,14.62
2022-11-01T07:35:15.998Z,14.85
2022-11-01T07:39:53.123Z,14.83
2022-11-01T07:44:24.219Z,14.72
2022-11-01T07:48:58.047Z,14.64
2022-11-01T07:53:35.964Z,14.64
2022-11-01T07:58:07.229Z,14.94
2022-11-01T08:02:37.112Z,15.11
2022-11-01T08:07:16.126Z,15.11
2022-11-01T08:11:53.141Z,15.10
2022-11-01T08:16:30.016Z,15.46
2022-11-01T08:21:00.890Z,15.08
2022-11-01T08:25:33.007Z,15.35
2022-11-01T08:30:10.034Z,15.76
2022-11-01T08:34:47.003Z,15.59
2022-11-01T08:39:24.010Z,15.28
2022-11-01T08:43:56.331Z,16.17
2022-11-01T08:48:27.175Z,15.98
2022-11-01T08:53:04.345Z,15.84
2022-11-01T08:57:41.014Z,15.98
2022-11-01T09:02:20.098Z,15.96
2022-11-01T09:06:57.230Z,16.04
2022-11-01T09:11:34.061Z,16.37
2022-11-01T09:16:11.004Z,16.02
2022-11-01T09:20:50.039Z,16.31
2022-11-01T09:25:20.218Z,16.37
2022-11-01T09:29:52.023Z,16.69
2022-11-01T09:34:24.858Z,16.24
2022-11-01T09:38:57.253Z,15.75
2022-11-01T09:43:37.236Z,16.57
2022-11-01T09:48:16.079Z,16.38
2022-11-01T09:52:56.069Z,16.59
2022-11-01T09:57:34.318Z,17.09
2022-11-01T10:02:12.300Z,16.54
2022-11-01T10:06:54.216Z,16.56
2022-11-01T10:11:48.041Z,16.96
2022-11-01T10:16:35.017Z,16.98
2022-11-01T10:21:14.028Z,16.64
2022-11-01T10:25:56.326Z,16.55
2022-11-01T10:30:27.285Z,16.62
2022-11-01T10:35:07.231Z,16.72
2022-11-01T10:39:54.945Z,16.48
2022-11-01T10:44:35.075Z,17.14
2022-11-01T10:49:19.120Z,17.24
2022-11-01T10:53:53.426Z,16.95
2022-11-01T10:58:42.277Z,16.90
2022-11-01T11:03:32.117Z,17.41
2022-11-01T11:08:14.334Z,18.12
2022-11-01T11:12:46.327Z,17.15
2022-11-01T11:17:26.145Z,17.38
2022-11-01T11:21:59.412Z,17.25
2022-11-01T11:26:32.699Z,16.86
2022-11-01T11:31:27.081Z,17.37
2022-11-01T11:36:03.449Z,17.23
2022-11-01T11:40:34.104Z,17.18
2022-11-01T11:45:29.399Z,17.52
2022-11-01T11:50:01.881Z,17.23
2022-11-01T11:54:38.362Z,17.49
2022-11-01T11:59:21.272Z,17.94
2022-11-01T12:04:02.387Z,18.33
2022-11-01T12:08:50.319Z,17.89
2022-11-01T12:13:40.307Z,18.57
2022-11-01T12:18:24.408Z,17.97
2022-11-01T12:23:06.085Z,18.36
2022-11-01T12:27:47.361Z,18.41
2022-11-01T12:32:29.302Z,18.37
2022-11-01T12:37:05.363Z,18.67
2022-11-01T12:41:42.134Z,19.21
2022-11-01T12:46:28.195Z,18.24
2022-11-01T12:51:00.484Z,19.07
2022-11-01T12:55:37.138Z,18.11
2022-11-01T13:00:15.288Z,18.79
2022-11-01T13:04:58.347Z,18.63
2022-11-01T13:09:40.172Z,18.48
2022-11-01T13:14:34.603Z,19.06
2022-11-01T13:19:07.317Z,18.59
2022-11-01T13:23:51.353Z,19.05
2022-11-01T13:28:42.355Z,18.58
2022-11-01T13:33:22.141Z,18.14
2022-11-01T13:38:05.136Z,18.29
2022-11-01T13:42:48.184Z,19.23
2022-11-01T13:47:42.636Z,18.07
2022-11-01T13:52:28.187Z,18.42
2022-11-01T13:57:11.158Z,18.72
2022-11-01T14:01:51.298Z,18.13
2022-11-01T14:06:50.196Z,17.92
2022-11-01T14:11:28.160Z,17.83
2022-11-01T14:16:39.201Z,18.50
2022-11-01T14:21:35.409Z,17.62
2022-11-01T14:26:40.319Z,17.25
2022-11-01T14:31:17.424Z,17.50
2022-11-01T14:35:56.173Z,17.69
2022-11-01T14:40:48.219Z,17.95
2022-11-01T14:45:42.475Z,17.26
2022-11-01T14:50:22.238Z,17.13
2022-11-01T14:55:01.204Z,17.25
2022-11-01T14:59:40.221Z,17.19
2022-11-01T15:04:10.612Z,16.86
2022-11-01T15:08:44.215Z,16.74
2022-11-01T15:13:22.344Z,16.61
2022-11-01T15:18:04.767Z,16.54
2022-11-01T15:22:36.715Z,16.61
2022-11-01T15:27:18.218Z,16.39
2022-11-01T15:31:59.282Z,16.30
2022-11-01T15:36:41.429Z,16.01
2022-11-01T15:41:34.407Z,16.02
2022-11-01T15:46:12.467Z,15.87
2022-11-01T15:50:43.339Z,15.58
2022-11-01T15:55:17.202Z,15.43
2022-11-01T16:00:04.358Z,15.32
2022-11-01T16:04:44.123Z,15.20
2022-11-01T16:09:29.353Z,15.12
2022-11-01T16:14:18.131Z,14.98
2022-11-01T16:18:49.135Z,14.85
2022-11-01T16:23:26.214Z,14.72
2022-11-01T16:28:41.659Z,14.72
2022-11-01T16:33:35.321Z,14.63
2022-11-01T16:38:12.376Z,14.48
2022-11-01T16:42:49.355Z,14.54
2022-11-01T16:47:26.229Z,14.42
2022-11-01T16:52:04.239Z,14.28
2022-11-01T16:56:44.330Z,14.39
2022-11-01T17:01:35.354Z,14.27
2022-11-01T17:06:14.450Z,14.14
2022-11-01T17:10:52.161Z,14.17
2022-11-01T17:15:30.336Z,14.05
2022-11-01T17:20:13.378Z,14.16
2022-11-01T17:24:50.286Z,14.06
2022-11-01T17:29:29.322Z,14.06
2022-11-01T17:34:06.386Z,13.97
2022-11-01T17:38:44.186Z,13.81
2022-11-01T17:43:14.459Z,13.83
2022-11-01T17:47:46.615Z,13.72
2022-11-01T17:52:24.202Z,13.66
2022-11-01T17:57:01.823Z,13.70
2022-11-01T18:01:38.620Z,13.55
2022-11-01T18:06:17.487Z,13.43
2022-11-01T18:10:58.728Z,13.37
2022-11-01T18:15:44.464Z,13.49
2022-11-01T18:20:28.753Z,13.60
2022-11-01T18:25:05.368Z,13.59
2022-11-01T18:29:43.224Z,13.52
2022-11-01T18:34:22.249Z,13.57
2022-11-01T18:39:04.309Z,13.67
2022-11-01T18:43:47.213Z,13.63
2022-11-01T18:48:34.337Z,13.57
2022-11-01T18:53:21.282Z,13.62
2022-11-01T18:57:58.760Z,13.60
2022-11-01T19:03:01.774Z,13.60
2022-11-01T19:08:09.768Z,13.62
2022-11-01T19:12:44.874Z,13.74
2022-11-01T19:17:34.279Z,13.69
2022-11-01T19:22:17.643Z,13.58
2022-11-01T19:26:56.948Z,13.61
2022-11-01T19:31:39.393Z,13.62
2022-11-01T19:36:20.330Z,13.56
2022-11-01T19:40:59.483Z,13.54
2022-11-01T19:45:38.478Z,13.43
2022-11-01T19:50:09.338Z,13.49
2022-11-01T19:54:49.725Z,13.45
2022-11-01T19:59:29.398Z,13.57
2022-11-01T20:04:08.283Z,13.57
2022-11-01T20:08:47.320Z,13.57
2022-11-01T20:13:25.671Z,13.51
2022-11-01T20:18:05.712Z,13.43
2022-11-01T20:22:43.999Z,13.35
2022-11-01T20:27:23.289Z,13.41
2022-11-01T20:32:00.389Z,13.42
2022-11-01T20:36:32.539Z,13.49
2022-11-01T20:41:03.209Z,13.52
2022-11-01T20:45:41.314Z,13.58
2022-11-01T20:50:21.405Z,13.56
2022-11-01T20:55:00.416Z,13.58
